createdAt,value
2017-11-28T05:35:28.531Z,998.32
2017-11-28T05:36:09.090Z,998.34
2017-11-28T05:36:49.665Z,998.32
2017-11-28T05:37:30.219Z,998.33
2017-11-28T05:38:10.797Z,998.3
2017-11-28T05:38:51.390Z,998.31
2017-11-28T05:39:31.949Z,998.33
2017-11-28T05:40:12.542Z,998.29
2017-11-28T05:40:53.153Z,998.29
2017-11-28T05:41:33.763Z,998.31
2017-11-28T05:42:14.317Z,998.28
2017-11-28T05:42:54.891Z,998.27
2017-11-28T05:43:35.478Z,998.23
2017-11-28T05:44:16.058Z,998.2
2017-11-28T05:44:56.631Z,998.19
2017-11-28T05:45:37.236Z,998.22
2017-11-28T05:46:17.804Z,998.22
2017-11-28T05:46:58.364Z,998.26
2017-11-28T05:47:38.925Z,998.24
2017-11-28T05:48:19.488Z,998.25
2017-11-28T05:49:00.059Z,998.3
2017-11-28T05:49:40.620Z,998.29
2017-11-28T05:50:21.226Z,998.29
2017-11-28T05:51:01.759Z,998.32
2017-11-28T05:51:42.322Z,998.29
2017-11-28T05:52:22.893Z,998.32
2017-11-28T05:53:03.459Z,998.29
2017-11-28T05:53:44.059Z,998.34
2017-11-28T05:54:24.616Z,998.34
2017-11-28T05:55:05.200Z,998.32
2017-11-28T05:55:45.757Z,998.35
2017-11-28T05:56:26.338Z,998.31
2017-11-28T05:57:06.903Z,998.31
2017-11-28T05:57:47.473Z,998.3
2017-11-28T05:58:28.045Z,998.28
2017-11-28T05:59:08.612Z,998.27
2017-11-28T05:59:49.190Z,998.26
2017-11-28T06:00:29.744Z,998.28
2017-11-28T06:01:10.314Z,998.27
2017-11-28T06:01:50.883Z,998.26
2017-11-28T06:02:31.445Z,998.33
2017-11-28T06:03:12.004Z,998.29
2017-11-28T06:03:52.571Z,998.32
2017-11-28T06:04:33.137Z,998.29
2017-11-28T06:05:13.717Z,998.34
2017-11-28T06:05:54.281Z,998.32
2017-11-28T06:06:34.857Z,998.31
2017-11-28T06:07:15.440Z,998.31
2017-11-28T06:07:56.009Z,998.29
2017-11-28T06:08:36.571Z,998.26
2017-11-28T06:09:17.124Z,998.3
2017-11-28T06:09:57.699Z,998.29
2017-11-28T06:10:38.257Z,998.27
2017-11-28T06:11:18.845Z,998.28
2017-11-28T06:11:59.419Z,998.29
2017-11-28T06:12:39.981Z,998.28
2017-11-28T06:13:20.557Z,998.34
2017-11-28T06:14:01.120Z,998.34
2017-11-28T06:14:41.714Z,998.36
2017-11-28T06:15:22.290Z,998.38
2017-11-28T06:17:18.256Z,998.39
2017-11-28T06:17:58.813Z,998.4
2017-11-28T06:18:39.375Z,998.39
2017-11-28T06:19:19.958Z,998.36
2017-11-28T06:20:00.527Z,998.39
2017-11-28T06:20:41.086Z,998.37
2017-11-28T06:21:21.690Z,998.37
2017-11-28T06:22:02.253Z,998.37
2017-11-28T06:22:42.839Z,998.39
2017-11-28T06:23:23.466Z,998.42
2017-11-28T06:24:04.020Z,998.41
2017-11-28T06:24:44.574Z,998.41
2017-11-28T06:25:25.147Z,998.38
2017-11-28T06:26:05.739Z,998.46
2017-11-28T06:26:46.302Z,998.37
2017-11-28T06:27:26.862Z,998.41
2017-11-28T06:28:07.460Z,998.39
2017-11-28T06:28:48.309Z,998.41
2017-11-28T06:29:28.894Z,998.41
2017-11-28T06:30:09.468Z,998.44
2017-11-28T06:30:50.034Z,998.41
2017-11-28T06:31:30.617Z,998.37
2017-11-28T06:32:11.192Z,998.47
2017-11-28T06:32:51.792Z,998.39
2017-11-28T06:33:32.390Z,998.39
2017-11-28T06:34:12.963Z,998.4
2017-11-28T06:34:53.523Z,998.42
2017-11-28T06:35:34.085Z,998.38
2017-11-28T06:36:14.670Z,998.4
2017-11-28T06:36:55.247Z,998.42
2017-11-28T06:37:35.815Z,998.42
2017-11-28T06:38:16.417Z,998.51
2017-11-28T06:38:56.977Z,998.52
2017-11-28T06:39:37.558Z,998.59
2017-11-28T06:40:18.131Z,998.6
2017-11-28T06:40:58.702Z,998.63
2017-11-28T06:41:39.281Z,998.62
2017-11-28T06:42:19.884Z,998.61
2017-11-28T06:43:00.461Z,998.68
2017-11-28T06:43:41.031Z,998.66
2017-11-28T06:44:21.610Z,998.68
2017-11-28T06:45:02.172Z,998.69
2017-11-28T06:45:42.731Z,998.68
2017-11-28T06:46:23.342Z,998.64
2017-11-28T06:47:03.918Z,998.62
2017-11-28T06:47:44.504Z,998.65
2017-11-28T06:48:25.062Z,998.66
2017-11-28T06:49:05.646Z,998.61
2017-11-28T06:49:46.234Z,998.61
2017-11-28T06:50:26.823Z,998.56
2017-11-28T06:51:07.396Z,998.58
2017-11-28T06:51:47.958Z,998.58
2017-11-28T06:52:28.513Z,998.59
2017-11-28T06:53:09.090Z,998.59
2017-11-28T06:53:49.688Z,998.61
2017-11-28T06:54:30.255Z,998.63
2017-11-28T06:55:10.822Z,998.58
2017-11-28T06:55:51.397Z,998.59
2017-11-28T06:56:31.970Z,998.61
2017-11-28T06:57:12.545Z,998.61
2017-11-28T06:57:53.107Z,998.65
2017-11-28T06:58:33.663Z,998.68
2017-11-28T06:59:14.221Z,998.67
2017-11-28T06:59:54.785Z,998.68
2017-11-28T07:00:35.349Z,998.69
2017-11-28T07:01:15.925Z,998.65
2017-11-28T07:01:56.485Z,998.66
2017-11-28T07:02:37.057Z,998.68
2017-11-28T07:03:17.612Z,998.61
2017-11-28T07:03:58.176Z,998.61
2017-11-28T07:04:38.769Z,998.65
2017-11-28T07:05:19.382Z,998.56
2017-11-28T07:05:59.917Z,998.57
2017-11-28T07:06:40.476Z,998.52
2017-11-28T07:07:21.044Z,998.55
2017-11-28T07:08:01.608Z,998.53
2017-11-28T07:08:42.196Z,998.52
2017-11-28T07:09:22.774Z,998.57
2017-11-28T07:10:03.372Z,998.53
2017-11-28T07:10:43.938Z,998.51
2017-11-28T07:11:24.522Z,998.53
2017-11-28T07:12:05.073Z,998.56
2017-11-28T07:12:45.633Z,998.55
2017-11-28T07:13:26.213Z,998.6
2017-11-28T07:14:06.770Z,998.62
2017-11-28T07:14:47.350Z,998.6
2017-11-28T07:15:27.929Z,998.63
2017-11-28T07:16:08.487Z,998.7
2017-11-28T07:16:49.085Z,998.68
2017-11-28T07:17:29.646Z,998.68
2017-11-28T07:18:10.212Z,998.62
2017-11-28T07:18:50.795Z,998.63
2017-11-28T07:19:31.429Z,998.63
2017-11-28T07:20:11.987Z,998.62
2017-11-28T07:20:52.569Z,998.6
2017-11-28T07:21:33.134Z,998.57
2017-11-28T07:22:13.696Z,998.61
2017-11-28T07:22:54.281Z,998.62
2017-11-28T07:23:34.835Z,998.64
2017-11-28T07:24:15.395Z,998.6
2017-11-28T07:24:55.997Z,998.71
2017-11-28T07:25:36.567Z,998.69
2017-11-28T07:26:17.127Z,998.69
2017-11-28T07:26:57.703Z,998.69
2017-11-28T07:27:42.281Z,998.69
2017-11-28T07:28:22.859Z,998.66
2017-11-28T07:29:03.437Z,998.72
2017-11-28T07:29:43.984Z,998.7
2017-11-28T07:30:24.538Z,998.74
2017-11-28T07:31:05.146Z,998.76
2017-11-28T07:31:45.752Z,998.78
2017-11-28T07:32:26.314Z,998.78
2017-11-28T07:33:06.882Z,998.84
2017-11-28T07:33:47.445Z,998.81
2017-11-28T07:34:28.016Z,998.81
2017-11-28T07:35:08.589Z,998.83
2017-11-28T07:35:49.201Z,998.8
2017-11-28T07:36:29.795Z,998.78
2017-11-28T07:37:10.461Z,998.78
2017-11-28T07:37:51.034Z,998.76
2017-11-28T07:38:31.849Z,998.78
2017-11-28T07:39:12.596Z,998.75
2017-11-28T07:39:53.182Z,998.7
2017-11-28T07:40:33.756Z,998.72
2017-11-28T07:41:14.332Z,998.72
2017-11-28T07:41:54.945Z,998.78
2017-11-28T07:42:35.535Z,998.78
2017-11-28T07:43:16.123Z,998.79
2017-11-28T07:43:56.683Z,998.74
2017-11-28T07:44:37.257Z,998.76
2017-11-28T07:45:17.816Z,998.72
2017-11-28T07:45:58.365Z,998.72
2017-11-28T07:46:38.922Z,998.73
2017-11-28T07:47:19.480Z,998.74
2017-11-28T07:48:00.061Z,998.79
2017-11-28T07:48:40.630Z,998.78
2017-11-28T07:49:21.249Z,998.73
2017-11-28T07:50:01.816Z,998.75
2017-11-28T07:50:42.484Z,998.7
2017-11-28T07:51:23.047Z,998.75
2017-11-28T07:52:03.615Z,998.72
2017-11-28T07:52:44.188Z,998.7
2017-11-28T07:53:24.763Z,998.66
2017-11-28T07:54:05.333Z,998.65
2017-11-28T07:54:45.898Z,998.69
2017-11-28T07:55:26.487Z,998.66
2017-11-28T07:56:07.076Z,998.65
2017-11-28T07:56:47.682Z,998.64
2017-11-28T07:57:29.323Z,998.6
2017-11-28T07:58:09.902Z,998.59
2017-11-28T07:58:50.461Z,998.55
2017-11-28T07:59:31.031Z,998.56
2017-11-28T08:00:11.589Z,998.53
2017-11-28T08:00:52.180Z,998.47
2017-11-28T08:01:32.735Z,998.49
2017-11-28T08:02:13.334Z,998.46
2017-11-28T08:02:53.939Z,998.52
2017-11-28T08:03:34.498Z,998.51
2017-11-28T08:04:15.072Z,998.49
2017-11-28T08:04:55.639Z,998.49
2017-11-28T08:05:36.211Z,998.51
2017-11-28T08:06:16.795Z,998.5
2017-11-28T08:06:57.347Z,998.45
2017-11-28T08:07:37.932Z,998.5
2017-11-28T08:08:18.513Z,998.5
2017-11-28T08:08:59.113Z,998.51
2017-11-28T08:09:39.675Z,998.5
2017-11-28T08:10:20.244Z,998.46
2017-11-28T08:11:00.815Z,998.49
2017-11-28T08:11:41.400Z,998.54
2017-11-28T08:12:21.959Z,998.55
2017-11-28T08:13:02.557Z,998.52
2017-11-28T08:13:43.115Z,998.51
2017-11-28T08:14:23.681Z,998.51
2017-11-28T08:15:04.251Z,998.49
2017-11-28T08:15:44.858Z,998.49
2017-11-28T08:16:25.427Z,998.5
2017-11-28T08:17:05.992Z,998.51
2017-11-28T08:17:46.600Z,998.56
2017-11-28T08:18:27.159Z,998.52
2017-11-28T08:19:07.738Z,998.54
2017-11-28T08:19:48.303Z,998.56
2017-11-28T08:20:28.870Z,998.55
2017-11-28T08:21:09.423Z,998.59
2017-11-28T08:21:50.003Z,998.55
2017-11-28T08:22:30.568Z,998.58
2017-11-28T08:23:11.137Z,998.59
2017-11-28T08:23:51.710Z,998.6
2017-11-28T08:24:32.279Z,998.61
2017-11-28T08:25:12.854Z,998.64
2017-11-28T08:25:53.419Z,998.66
2017-11-28T08:26:34.003Z,998.61
2017-11-28T08:27:14.564Z,998.7
2017-11-28T08:27:55.108Z,998.64
2017-11-28T08:28:35.680Z,998.69
2017-11-28T08:29:16.259Z,998.67
2017-11-28T08:29:56.836Z,998.67
2017-11-28T08:30:37.452Z,998.7
2017-11-28T08:31:18.024Z,998.7
2017-11-28T08:31:58.589Z,998.66
2017-11-28T08:32:39.199Z,998.71
2017-11-28T08:33:19.796Z,998.66
2017-11-28T08:34:00.377Z,998.66
2017-11-28T08:34:40.952Z,998.63
2017-11-28T08:35:21.518Z,998.64
2017-11-28T08:36:02.086Z,998.61
2017-11-28T08:36:42.673Z,998.63
2017-11-28T08:37:23.240Z,998.65
2017-11-28T08:38:03.831Z,998.66
2017-11-28T08:38:44.411Z,998.67
2017-11-28T08:39:24.989Z,998.67
2017-11-28T08:40:05.575Z,998.66
2017-11-28T08:40:46.145Z,998.67
2017-11-28T08:41:26.716Z,998.67
2017-11-28T08:42:07.317Z,998.65
2017-11-28T08:42:47.892Z,998.62
2017-11-28T08:43:28.460Z,998.67
2017-11-28T08:44:09.048Z,998.64
2017-11-28T08:44:49.609Z,998.65
2017-11-28T08:45:30.162Z,998.67
2017-11-28T08:46:10.732Z,998.61
2017-11-28T08:46:51.297Z,998.67
2017-11-28T08:47:31.970Z,998.72
2017-11-28T08:48:12.515Z,998.72
2017-11-28T08:48:53.079Z,998.72
2017-11-28T08:49:33.642Z,998.78
2017-11-28T08:50:14.206Z,998.79
2017-11-28T08:50:54.784Z,998.77
2017-11-28T08:51:35.365Z,998.79
2017-11-28T08:52:15.939Z,998.73
2017-11-28T08:52:56.522Z,998.78
2017-11-28T08:53:37.079Z,998.77
2017-11-28T08:54:17.687Z,998.78
2017-11-28T08:54:58.285Z,998.71
2017-11-28T08:55:38.857Z,998.75
2017-11-28T08:56:19.433Z,998.76
2017-11-28T08:57:00.032Z,998.76
2017-11-28T08:57:40.606Z,998.76
2017-11-28T08:58:21.181Z,998.77
2017-11-28T08:59:01.781Z,998.77
2017-11-28T08:59:42.393Z,998.79
2017-11-28T09:00:22.964Z,998.76
2017-11-28T09:01:03.568Z,998.77
2017-11-28T09:01:44.126Z,998.77
2017-11-28T09:02:24.693Z,998.8
2017-11-28T09:03:05.257Z,998.81
2017-11-28T09:03:45.838Z,998.75
2017-11-28T09:04:26.407Z,998.82
2017-11-28T09:05:06.976Z,998.8
2017-11-28T09:05:47.535Z,998.8
2017-11-28T09:06:28.088Z,998.77
2017-11-28T09:07:08.731Z,998.79
2017-11-28T09:07:49.300Z,998.81
2017-11-28T09:08:29.905Z,998.81
2017-11-28T09:09:10.525Z,998.8
2017-11-28T09:09:51.107Z,998.8
2017-11-28T09:10:31.665Z,998.83
2017-11-28T09:11:12.239Z,998.8
2017-11-28T09:11:52.801Z,998.79
2017-11-28T09:12:33.371Z,998.77
2017-11-28T09:13:13.949Z,998.76
2017-11-28T09:13:54.521Z,998.76
2017-11-28T09:14:35.074Z,998.75
2017-11-28T09:15:15.649Z,998.75
2017-11-28T09:15:56.234Z,998.78
2017-11-28T09:16:36.847Z,998.74
2017-11-28T09:17:17.395Z,998.73
2017-11-28T09:17:57.984Z,998.76
2017-11-28T09:18:38.560Z,998.76
2017-11-28T09:19:19.145Z,998.75
2017-11-28T09:19:59.708Z,998.76
2017-11-28T09:20:40.266Z,998.77
2017-11-28T09:21:20.837Z,998.74
2017-11-28T09:22:01.444Z,998.76
2017-11-28T09:22:42.031Z,998.76
2017-11-28T09:23:22.590Z,998.79
2017-11-28T09:24:03.170Z,998.75
2017-11-28T09:24:43.780Z,998.76
2017-11-28T09:25:24.350Z,998.72
2017-11-28T09:26:04.941Z,998.74
2017-11-28T09:26:45.522Z,998.68
2017-11-28T09:27:26.097Z,998.73
2017-11-28T09:28:06.677Z,998.73
2017-11-28T09:28:47.275Z,998.73
2017-11-28T09:29:27.836Z,998.76
2017-11-28T09:30:08.397Z,998.75
2017-11-28T09:30:48.982Z,998.72
2017-11-28T09:31:29.584Z,998.78
2017-11-28T09:32:10.139Z,998.79
2017-11-28T09:32:50.721Z,998.81
2017-11-28T09:33:31.279Z,998.73
2017-11-28T09:34:11.848Z,998.76
2017-11-28T09:34:52.409Z,998.73
2017-11-28T09:35:32.992Z,998.77
2017-11-28T09:36:13.571Z,998.78
2017-11-28T09:36:54.129Z,998.75
2017-11-28T09:37:34.696Z,998.75
2017-11-28T09:38:15.271Z,998.72
2017-11-28T09:38:55.846Z,998.74
2017-11-28T09:39:36.402Z,998.74
2017-11-28T09:40:16.964Z,998.71
2017-11-28T09:40:57.545Z,998.73
2017-11-28T09:41:38.123Z,998.73
2017-11-28T09:42:18.701Z,998.74
2017-11-28T09:42:59.273Z,998.76
2017-11-28T09:43:39.828Z,998.71
2017-11-28T09:44:20.399Z,998.75
2017-11-28T09:45:00.950Z,998.68
2017-11-28T09:45:41.518Z,998.74
2017-11-28T09:46:22.095Z,998.72
2017-11-28T09:47:02.694Z,998.72
2017-11-28T09:47:43.224Z,998.73
2017-11-28T09:48:23.817Z,998.74
2017-11-28T09:49:04.372Z,998.7
2017-11-28T09:49:44.976Z,998.72
2017-11-28T09:50:25.570Z,998.71
2017-11-28T09:51:06.133Z,998.66
2017-11-28T09:51:46.709Z,998.72
2017-11-28T09:52:27.295Z,998.67
2017-11-28T09:53:07.850Z,998.68
2017-11-28T09:53:48.414Z,998.68
2017-11-28T09:54:28.981Z,998.67
2017-11-28T09:55:09.552Z,998.73
2017-11-28T09:55:50.119Z,998.72
2017-11-28T09:56:30.691Z,998.7
2017-11-28T09:57:11.305Z,998.7
2017-11-28T09:57:51.878Z,998.76
2017-11-28T09:58:32.440Z,998.73
2017-11-28T09:59:12.992Z,998.76
2017-11-28T09:59:53.573Z,998.7
2017-11-28T10:00:34.145Z,998.68
2017-11-28T10:01:14.705Z,998.72
2017-11-28T10:01:55.282Z,998.72
2017-11-28T10:02:35.865Z,998.68
2017-11-28T10:03:16.435Z,998.67
2017-11-28T10:03:57.021Z,998.71
2017-11-28T10:04:37.595Z,998.71
2017-11-28T10:05:18.161Z,998.69
2017-11-28T10:05:58.738Z,998.67
2017-11-28T10:06:39.296Z,998.7
2017-11-28T10:07:19.873Z,998.7
2017-11-28T10:08:00.450Z,998.68
2017-11-28T10:08:41.014Z,998.63
2017-11-28T10:09:21.594Z,998.7
2017-11-28T10:10:02.172Z,998.66
2017-11-28T10:10:42.743Z,998.66
2017-11-28T10:11:23.317Z,998.61
2017-11-28T10:12:03.881Z,998.61
2017-11-28T10:12:44.455Z,998.61
2017-11-28T10:13:25.012Z,998.61
2017-11-28T10:14:05.577Z,998.62
2017-11-28T10:14:46.167Z,998.59
2017-11-28T10:15:26.726Z,998.54
2017-11-28T10:16:07.308Z,998.55
2017-11-28T10:16:47.871Z,998.54
2017-11-28T10:17:28.428Z,998.57
2017-11-28T10:18:09.011Z,998.53
2017-11-28T10:18:49.568Z,998.5
2017-11-28T10:19:30.135Z,998.57
2017-11-28T10:20:10.712Z,998.5
2017-11-28T10:20:51.294Z,998.56
2017-11-28T10:21:31.886Z,998.51
2017-11-28T10:22:12.471Z,998.47
2017-11-28T10:22:53.034Z,998.5
2017-11-28T10:23:33.604Z,998.49
2017-11-28T10:24:14.220Z,998.57
2017-11-28T10:24:54.805Z,998.49
2017-11-28T10:25:35.394Z,998.47
2017-11-28T10:26:15.957Z,998.49
2017-11-28T10:26:56.537Z,998.44
2017-11-28T10:27:37.123Z,998.46
2017-11-28T10:28:17.693Z,998.46
2017-11-28T10:28:58.275Z,998.45
2017-11-28T10:29:38.850Z,998.45
2017-11-28T10:30:19.419Z,998.47
2017-11-28T10:30:59.985Z,998.49
2017-11-28T10:31:40.536Z,998.5
2017-11-28T10:32:21.113Z,998.46
2017-11-28T10:33:01.660Z,998.47
2017-11-28T10:33:42.227Z,998.43
2017-11-28T10:34:22.785Z,998.47
2017-11-28T10:35:03.390Z,998.49
2017-11-28T10:35:43.956Z,998.49
2017-11-28T10:36:24.543Z,998.47
2017-11-28T10:37:05.118Z,998.45
2017-11-28T10:37:45.689Z,998.49
2017-11-28T10:38:26.286Z,998.51
2017-11-28T10:39:06.849Z,998.47
2017-11-28T10:39:47.430Z,998.47
2017-11-28T10:40:28.015Z,998.51
2017-11-28T10:41:08.601Z,998.52
2017-11-28T10:41:49.210Z,998.51
2017-11-28T10:42:29.791Z,998.45
2017-11-28T10:43:10.367Z,998.46
2017-11-28T10:43:50.936Z,998.42
2017-11-28T10:44:31.495Z,998.48
2017-11-28T10:45:12.074Z,998.47
2017-11-28T10:45:52.664Z,998.49
2017-11-28T10:46:33.234Z,998.54
2017-11-28T10:47:13.817Z,998.52
2017-11-28T10:47:54.377Z,998.43
2017-11-28T10:48:34.941Z,998.48
2017-11-28T10:49:15.560Z,998.49
2017-11-28T10:49:56.156Z,998.48
2017-11-28T10:50:36.720Z,998.48
2017-11-28T10:51:17.282Z,998.49
2017-11-28T10:51:57.852Z,998.46
2017-11-28T10:52:38.428Z,998.48
2017-11-28T10:53:18.996Z,998.49
2017-11-28T10:53:59.612Z,998.47
2017-11-28T10:54:40.178Z,998.47
2017-11-28T10:55:20.755Z,998.48
2017-11-28T10:56:01.322Z,998.49
2017-11-28T10:56:41.888Z,998.47
2017-11-28T10:57:22.464Z,998.46
2017-11-28T10:58:03.082Z,998.49
2017-11-28T10:58:43.668Z,998.47
2017-11-28T10:59:24.282Z,998.49
2017-11-28T11:00:04.861Z,998.47
2017-11-28T11:00:45.446Z,998.49
2017-11-28T11:01:26.020Z,998.51
2017-11-28T11:02:06.589Z,998.52
2017-11-28T11:02:47.230Z,998.51
2017-11-28T11:03:27.792Z,998.57
2017-11-28T11:04:08.365Z,998.53
2017-11-28T11:04:48.932Z,998.57
2017-11-28T11:05:29.500Z,998.56
2017-11-28T11:06:10.081Z,998.47
2017-11-28T11:06:50.641Z,998.52
2017-11-28T11:07:31.229Z,998.47
2017-11-28T11:08:11.805Z,998.5
2017-11-28T11:08:52.367Z,998.47
2017-11-28T11:09:32.927Z,998.48
2017-11-28T11:10:13.487Z,998.47
2017-11-28T11:10:54.061Z,998.44
2017-11-28T11:11:34.615Z,998.46
2017-11-28T11:12:15.183Z,998.44
2017-11-28T11:12:55.787Z,998.45
2017-11-28T11:13:36.387Z,998.44
2017-11-28T11:14:16.974Z,998.44
2017-11-28T11:14:57.570Z,998.43
2017-11-28T11:15:38.149Z,998.39
2017-11-28T11:16:18.747Z,998.41
2017-11-28T11:16:59.322Z,998.42
2017-11-28T11:17:39.891Z,998.41
2017-11-28T11:18:20.455Z,998.39
2017-11-28T11:19:01.032Z,998.4
2017-11-28T11:19:41.603Z,998.46
2017-11-28T11:20:22.224Z,998.41
2017-11-28T11:21:02.740Z,998.4
2017-11-28T11:21:43.346Z,998.45
2017-11-28T11:22:23.899Z,998.39
2017-11-28T11:23:04.472Z,998.42
2017-11-28T11:23:45.065Z,998.45
2017-11-28T11:24:25.683Z,998.38
2017-11-28T11:25:06.245Z,998.41
2017-11-28T11:25:46.822Z,998.41
2017-11-28T11:26:27.381Z,998.46
2017-11-28T11:27:07.934Z,998.44
2017-11-28T11:27:48.497Z,998.43
2017-11-28T11:28:29.080Z,998.45
2017-11-28T11:29:09.657Z,998.45
2017-11-28T11:29:50.228Z,998.44
2017-11-28T11:30:30.791Z,998.45
2017-11-28T11:31:11.357Z,998.45
2017-11-28T11:31:51.966Z,998.45
2017-11-28T11:32:32.536Z,998.5
2017-11-28T11:33:13.092Z,998.44
2017-11-28T11:33:53.687Z,998.43
2017-11-28T11:34:34.240Z,998.39
2017-11-28T11:35:14.815Z,998.36
2017-11-28T11:35:55.382Z,998.39
2017-11-28T11:36:36.014Z,998.41
2017-11-28T11:37:16.574Z,998.36
2017-11-28T11:37:57.136Z,998.34
2017-11-28T11:38:37.695Z,998.36
2017-11-28T11:39:18.327Z,998.32
2017-11-28T11:39:58.893Z,998.31
2017-11-28T11:40:39.452Z,998.33
2017-11-28T11:41:20.022Z,998.3
2017-11-28T11:42:00.609Z,998.28
2017-11-28T11:42:41.183Z,998.3
2017-11-28T11:43:21.769Z,998.31
2017-11-28T11:44:02.362Z,998.29
2017-11-28T11:44:42.938Z,998.26
2017-11-28T11:45:23.527Z,998.27
2017-11-28T11:46:04.098Z,998.29
2017-11-28T11:46:44.675Z,998.26
2017-11-28T11:47:25.250Z,998.28
2017-11-28T11:48:05.835Z,998.3
2017-11-28T11:48:46.423Z,998.26
2017-11-28T11:49:26.996Z,998.22
2017-11-28T11:50:07.649Z,998.2
2017-11-28T11:50:48.206Z,998.23
2017-11-28T11:51:28.817Z,998.3
2017-11-28T11:52:09.410Z,998.2
2017-11-28T11:52:50.021Z,998.21
2017-11-28T11:53:30.615Z,998.17
2017-11-28T11:54:11.238Z,998.23
2017-11-28T11:54:51.828Z,998.25
2017-11-28T11:55:32.407Z,998.21
2017-11-28T11:56:12.980Z,998.2
2017-11-28T11:56:53.571Z,998.2
2017-11-28T11:57:34.131Z,998.23
2017-11-28T11:58:14.724Z,998.18
2017-11-28T11:58:55.283Z,998.25
2017-11-28T11:59:35.874Z,998.21
2017-11-28T12:00:16.485Z,998.26
2017-11-28T12:00:57.047Z,998.23
2017-11-28T12:01:37.623Z,998.23
2017-11-28T12:02:18.210Z,998.16
2017-11-28T12:02:58.792Z,998.18
2017-11-28T12:03:39.363Z,998.18
2017-11-28T12:04:19.958Z,998.13
2017-11-28T12:05:00.493Z,998.16
2017-11-28T12:05:41.068Z,998.18
2017-11-28T12:06:21.641Z,998.14
2017-11-28T12:07:02.236Z,998.14
2017-11-28T12:07:42.814Z,998.12
2017-11-28T12:08:23.413Z,998.18
2017-11-28T12:09:03.957Z,998.14
2017-11-28T12:09:44.530Z,998.12
2017-11-28T12:10:25.094Z,998.13
2017-11-28T12:11:05.660Z,998.17
2017-11-28T12:11:46.241Z,998.09
2017-11-28T12:12:26.819Z,998.1
2017-11-28T12:13:07.395Z,998.11
2017-11-28T12:13:47.952Z,998.1
2017-11-28T12:14:28.558Z,998.06
2017-11-28T12:15:09.130Z,998.07
2017-11-28T12:15:49.705Z,998.04
2017-11-28T12:16:30.264Z,998.1
2017-11-28T12:17:10.838Z,998.07
2017-11-28T12:17:51.419Z,998.07
2017-11-28T12:18:31.984Z,998.08
2017-11-28T12:19:12.574Z,998.01
2017-11-28T12:19:53.169Z,998.06
2017-11-28T12:20:33.708Z,998.07
2017-11-28T12:21:14.269Z,998.06
2017-11-28T12:21:54.885Z,998.03
2017-11-28T12:22:35.449Z,998.03
2017-11-28T12:23:16.035Z,998.04
2017-11-28T12:23:56.607Z,998.07
2017-11-28T12:24:37.186Z,998.04
2017-11-28T12:25:17.773Z,998.07
2017-11-28T12:25:58.335Z,998.06
2017-11-28T12:26:38.922Z,998.05
2017-11-28T12:27:19.521Z,998.02
2017-11-28T12:28:00.092Z,998.02
2017-11-28T12:28:40.675Z,998
2017-11-28T12:29:21.261Z,998.04
2017-11-28T12:30:01.824Z,998.05
2017-11-28T12:30:42.416Z,998.08
2017-11-28T12:31:22.986Z,998.07
2017-11-28T12:32:03.557Z,998.1
2017-11-28T12:32:44.141Z,998.09
2017-11-28T12:33:24.694Z,998.06
2017-11-28T12:34:05.256Z,998.1
2017-11-28T12:34:45.880Z,998.05
2017-11-28T12:35:26.452Z,998.07
2017-11-28T12:36:07.051Z,998.08
2017-11-28T12:36:47.611Z,998
2017-11-28T12:37:28.185Z,998.01
2017-11-28T12:38:08.737Z,998.01
2017-11-28T12:38:49.298Z,997.97
2017-11-28T12:39:29.863Z,997.93
2017-11-28T12:40:10.432Z,997.98
2017-11-28T12:40:51.012Z,997.97
2017-11-28T12:41:31.623Z,998.01
2017-11-28T12:42:12.199Z,997.99
2017-11-28T12:42:52.770Z,997.94
2017-11-28T12:43:33.350Z,997.97
2017-11-28T12:44:13.927Z,997.99
2017-11-28T12:44:54.505Z,998
2017-11-28T12:45:35.076Z,998
2017-11-28T12:46:15.651Z,998
2017-11-28T12:46:56.217Z,997.98
2017-11-28T12:47:36.797Z,998
2017-11-28T12:48:17.396Z,998.03
2017-11-28T12:48:57.982Z,997.99
2017-11-28T12:49:38.548Z,997.97
2017-11-28T12:50:19.115Z,998.01
2017-11-28T12:50:59.692Z,997.97
2017-11-28T12:51:40.281Z,997.98
2017-11-28T12:52:20.877Z,997.98
2017-11-28T12:53:01.452Z,997.96
2017-11-28T12:53:42.020Z,997.95
2017-11-28T12:54:22.598Z,997.93
2017-11-28T12:55:03.190Z,997.95
2017-11-28T12:55:43.739Z,997.97
2017-11-28T12:56:24.314Z,997.89
2017-11-28T12:57:04.907Z,997.93
2017-11-28T12:57:45.486Z,997.94
2017-11-28T12:58:26.092Z,997.93
2017-11-28T12:59:06.628Z,997.92
2017-11-28T12:59:47.212Z,997.9
2017-11-28T13:00:27.809Z,997.93
2017-11-28T13:01:08.379Z,997.91
2017-11-28T13:01:48.956Z,997.93
2017-11-28T13:02:29.525Z,998
2017-11-28T13:03:10.120Z,997.96
2017-11-28T13:03:50.661Z,997.95
2017-11-28T13:04:31.234Z,997.95
2017-11-28T13:05:11.825Z,997.89
2017-11-28T13:05:52.427Z,997.97
2017-11-28T13:06:32.981Z,998.01
2017-11-28T13:07:13.582Z,997.97
2017-11-28T13:07:54.193Z,998
2017-11-28T13:08:34.778Z,998.01
2017-11-28T13:09:15.350Z,997.98
2017-11-28T13:09:55.909Z,998.04
2017-11-28T13:10:36.471Z,998.05
2017-11-28T13:11:17.037Z,998.1
2017-11-28T13:11:57.605Z,998.11
2017-11-28T13:12:38.213Z,998.07
2017-11-28T13:13:18.821Z,998.05
2017-11-28T13:13:59.481Z,998.02
2017-11-28T13:14:40.654Z,998.03
2017-11-28T13:15:22.399Z,998.01
2017-11-28T13:16:03.683Z,998.01
2017-11-28T13:16:45.149Z,997.98
2017-11-28T13:17:29.833Z,998.01
2017-11-28T13:18:10.412Z,998.01
2017-11-28T13:18:51.137Z,998
2017-11-28T13:19:31.816Z,998.05
2017-11-28T13:20:12.477Z,998.02
2017-11-28T13:20:53.040Z,998.05
2017-11-28T13:21:33.614Z,998.05
2017-11-28T13:22:14.199Z,998.08
2017-11-28T13:22:54.794Z,998.05
2017-11-28T13:23:35.454Z,998.14
2017-11-28T13:24:16.042Z,998.1
2017-11-28T13:24:56.665Z,998.09
2017-11-28T13:25:37.226Z,998.11
2017-11-28T13:26:17.823Z,998.03
2017-11-28T13:26:58.400Z,998.06
2017-11-28T13:27:38.968Z,998.06
2017-11-28T13:28:19.546Z,998.09
2017-11-28T13:29:00.128Z,998.08
2017-11-28T13:29:40.800Z,998.06
2017-11-28T13:30:21.428Z,998.06
2017-11-28T13:31:04.093Z,998.07
2017-11-28T13:31:46.057Z,998.04
2017-11-28T13:32:26.697Z,998.06
2017-11-28T13:33:07.281Z,998.06
2017-11-28T13:33:47.892Z,998.08
2017-11-28T13:34:28.507Z,998.09
2017-11-28T13:35:09.192Z,998.1
2017-11-28T13:35:49.795Z,998.07
2017-11-28T13:36:30.386Z,998.08
2017-11-28T13:37:10.974Z,998.11
2017-11-28T13:37:51.556Z,998.09
2017-11-28T13:38:32.112Z,998.09
2017-11-28T13:39:12.730Z,998.11
2017-11-28T13:39:53.284Z,998.11
2017-11-28T13:40:33.846Z,998.16
2017-11-28T13:41:14.464Z,998.09
2017-11-28T13:41:55.068Z,998.13
2017-11-28T13:42:35.616Z,998.09
2017-11-28T13:43:16.176Z,998.03
2017-11-28T13:43:56.767Z,998.11
2017-11-28T13:44:37.340Z,998.11
2017-11-28T13:45:17.912Z,998.1
2017-11-28T13:45:58.471Z,998.09
2017-11-28T13:46:39.041Z,998.1
2017-11-28T13:47:19.607Z,998.07
2017-11-28T13:48:00.197Z,998.11
2017-11-28T13:48:40.785Z,998.09
2017-11-28T13:49:21.407Z,998.11
2017-11-28T13:50:01.985Z,998.16
2017-11-28T13:50:42.605Z,998.1
2017-11-28T13:51:23.171Z,998.15
2017-11-28T13:52:03.764Z,998.1
2017-11-28T13:52:45.986Z,998.14
2017-11-28T13:53:26.608Z,998.15
2017-11-28T13:54:07.176Z,998.11
2017-11-28T13:54:47.823Z,998.17
2017-11-28T13:55:28.411Z,998.17
2017-11-28T13:56:09.001Z,998.16
2017-11-28T13:56:49.561Z,998.18
2017-11-28T13:57:30.125Z,998.2
2017-11-28T13:58:10.767Z,998.19
2017-11-28T13:58:51.434Z,998.2
2017-11-28T13:59:32.029Z,998.18
2017-11-28T14:00:12.660Z,998.19
2017-11-28T14:00:53.246Z,998.18
2017-11-28T14:01:33.831Z,998.21
2017-11-28T14:02:14.426Z,998.25
2017-11-28T14:02:55.026Z,998.24
2017-11-28T14:03:35.593Z,998.28
2017-11-28T14:04:16.178Z,998.26
2017-11-28T14:04:56.797Z,998.26